Observation data for Pampa on 11/19/2019      Previous  Date       Current Mesonet Observations  Soil Data  Daily Summary Page  Observations in Plain Language
KPMS 190600Z 10010KT 08/01 A2995 RMK A01 T00750010  RH  064%=      5-min Rain = 0
KPMS 190605Z 12006KT 08/01 A2996 RMK A01 T00790014  RH  064%=      5-min Rain = 0
KPMS 190610Z 15003KT 10/01 A2997 RMK A01 T00980014  RH  057%=      5-min Rain = 0
KPMS 190615Z 15003KT 10/01 A2998 RMK A01 T01010012  RH  055%=      5-min Rain = 0
KPMS 190620Z 20003KT 09/01 A2998 RMK A01 T00910013  RH  059%=      5-min Rain = 0
KPMS 190625Z 17003KT 09/01 A2998 RMK A01 T00940010  RH  057%=      5-min Rain = 0
KPMS 190630Z 17003KT 10/01 A2999 RMK A01 T00970009  RH  055%=      5-min Rain = 0
KPMS 190635Z 19003KT 10/01 A2999 RMK A01 T00990008  RH  054%=      5-min Rain = 0
KPMS 190640Z 19004KT 09/01 A2999 RMK A01 T00920007  RH  056%=      5-min Rain = 0
KPMS 190645Z 19004KT 09/01 A2999 RMK A01 T00880007  RH  057%=      5-min Rain = 0
KPMS 190650Z 18004KT 08/01 A2998 RMK A01 T00820006  RH  060%=      5-min Rain = 0
KPMS 190655Z 16003KT 08/01 A2998 RMK A01 T00790007  RH  061%=      5-min Rain = 0
KPMS 190700Z 14003KT 08/01 A2998 RMK A01 T00800008  RH  061%=      5-min Rain = 0
KPMS 190705Z 14003KT 08/01 A2998 RMK A01 T00840007  RH  059%=      5-min Rain = 0
KPMS 190710Z 13004KT 08/01 A2998 RMK A01 T00810005  RH  059%=      5-min Rain = 0
KPMS 190715Z 13004KT 07/01 A2998 RMK A01 T00690006  RH  065%=      5-min Rain = 0
KPMS 190720Z 13004KT 06/01 A2998 RMK A01 T00600011  RH  072%=      5-min Rain = 0
KPMS 190725Z 13004KT 05/01 A2998 RMK A01 T00530008  RH  074%=      5-min Rain = 0
KPMS 190730Z 14004KT 05/01 A2998 RMK A01 T00520006  RH  073%=      5-min Rain = 0
KPMS 190735Z 14004KT 06/00 A2998 RMK A01 T00570004  RH  069%=      5-min Rain = 0
KPMS 190740Z 13005KT 06/01 A2998 RMK A01 T00610005  RH  068%=      5-min Rain = 0
KPMS 190745Z 13005KT 05/00 A2998 RMK A01 T00530001  RH  070%=      5-min Rain = 0
KPMS 190750Z 12005KT 05/01 A2997 RMK A01 T00500005  RH  073%=      5-min Rain = 0
KPMS 190755Z 12005KT 05/01 A2998 RMK A01 T00530006  RH  073%=      5-min Rain = 0
KPMS 190800Z 12004KT 06/00 A2998 RMK A01 T00550003  RH  070%=      5-min Rain = 0
KPMS 190805Z 13004KT 06/00 A2998 RMK A01 T00610002  RH  067%=      5-min Rain = 0
KPMS 190810Z 13003KT 05/00 A2998 RMK A01 T00540002  RH  070%=      5-min Rain = 0
KPMS 190815Z 14003KT 06/01 A2999 RMK A01 T00570005  RH  070%=      5-min Rain = 0
KPMS 190820Z 15003KT 07/00 A2999 RMK A01 T00660004  RH  065%=      5-min Rain = 0
KPMS 190825Z 15004KT 07/00 A2999 RMK A01 T00740004  RH  062%=      5-min Rain = 0
KPMS 190830Z 15004KT 07/00 A2999 RMK A01 T00740003  RH  061%=      5-min Rain = 0
KPMS 190835Z 15004KT 07/00 A2999 RMK A01 T00720003  RH  063%=      5-min Rain = 0
KPMS 190840Z 15004KT 07/00 A2999 RMK A01 T00730003  RH  062%=      5-min Rain = 0
KPMS 190845Z 14004KT 07/00 A2999 RMK A01 T00710003  RH  063%=      5-min Rain = 0
KPMS 190850Z 13005KT 07/00 A2998 RMK A01 T00690003  RH  064%=      5-min Rain = 0
KPMS 190855Z 13004KT 07/00 A2999 RMK A01 T00650002  RH  065%=      5-min Rain = 0
KPMS 190900Z 21005KT 06/00 A2999 RMK A01 T00630002  RH  066%=      5-min Rain = 0
KPMS 190905Z 21007KT 06/00 A2999 RMK A01 T00630004  RH  067%=      5-min Rain = 0
KPMS 190910Z 22007KT 07/01 A2999 RMK A01 T00650006  RH  067%=      5-min Rain = 0
KPMS 190915Z 22007KT 07/01 A2999 RMK A01 T00700007  RH  065%=      5-min Rain = 0
KPMS 190920Z 22006KT 07/01 A2999 RMK A01 T00690006  RH  065%=      5-min Rain = 0
KPMS 190925Z 22007KT 07/01 A2999 RMK A01 T00670006  RH  066%=      5-min Rain = 0
KPMS 190930Z 22006KT 07/01 A2999 RMK A01 T00690007  RH  065%=      5-min Rain = 0
KPMS 190935Z 21007KT 07/01 A2999 RMK A01 T00680007  RH  066%=      5-min Rain = 0
KPMS 190940Z 21007KT 07/01 A2999 RMK A01 T00650006  RH  067%=      5-min Rain = 0
KPMS 190945Z 21007KT 06/01 A2998 RMK A01 T00610005  RH  068%=      5-min Rain = 0
KPMS 190950Z 22006KT 06/00 A2998 RMK A01 T00570004  RH  069%=      5-min Rain = 0
KPMS 190955Z 21004KT 06/00 A2998 RMK A01 T00580004  RH  069%=      5-min Rain = 0
KPMS 191000Z 20006KT 06/00 A2998 RMK A01 T00550003  RH  070%=      5-min Rain = 0
KPMS 191005Z 20005KT 06/00 A2997 RMK A01 T00580004  RH  069%=      5-min Rain = 0
KPMS 191010Z 18004KT 05/00 A2997 RMK A01 T00540002  RH  070%=      5-min Rain = 0
KPMS 191015Z 18006KT 05/00 A2997 RMK A01 T00460001  RH  073%=      5-min Rain = 0
KPMS 191020Z 18006KT 04/00 A2997 RMK A01 T003900-0  RH  077%=      5-min Rain = 0
KPMS 191025Z 17006KT 03/00 A2997 RMK A01 T00340000  RH  079%=      5-min Rain = 0
KPMS 191030Z 17006KT 03/M00 A2997 RMK A01 T00301002  RH  080%=      5-min Rain = 0
KPMS 191035Z 17006KT 03/M00 A2997 RMK A01 T00301001  RH  081%=      5-min Rain = 0
KPMS 191040Z 16007KT 03/00 A2996 RMK A01 T00300000  RH  082%=      5-min Rain = 0
KPMS 191045Z 17007KT 03/00 A2996 RMK A01 T00300000  RH  082%=      5-min Rain = 0
KPMS 191050Z 16007KT 03/00 A2996 RMK A01 T00310001  RH  082%=      5-min Rain = 0
KPMS 191055Z 15007KT 04/00 A2996 RMK A01 T00370003  RH  079%=      5-min Rain = 0
KPMS 191100Z 14008KT 04/00 A2996 RMK A01 T00400004  RH  078%=      5-min Rain = 0
KPMS 191105Z 16008KT 05/01 A2996 RMK A01 T00460007  RH  077%=      5-min Rain = 0
KPMS 191110Z 15008KT 05/00 A2996 RMK A01 T00480004  RH  074%=      5-min Rain = 0
KPMS 191115Z 15008KT 05/00 A2996 RMK A01 T00450004  RH  075%=      5-min Rain = 0
KPMS 191120Z 14008KT 04/01 A2995 RMK A01 T00430006  RH  077%=      5-min Rain = 0
KPMS 191125Z 14008KT 04/01 A2995 RMK A01 T00430008  RH  079%=      5-min Rain = 0
KPMS 191130Z 14008KT 05/01 A2995 RMK A01 T00470013  RH  080%=      5-min Rain = 0
KPMS 191135Z 14007KT 05/02 A2995 RMK A01 T00510015  RH  079%=      5-min Rain = 0
KPMS 191140Z 13007KT 05/02 A2995 RMK A01 T00530016  RH  078%=      5-min Rain = 0
KPMS 191145Z 13008KT 06/02 A2994 RMK A01 T00590017  RH  076%=      5-min Rain = 0
KPMS 191150Z 13008KT 06/02 A2994 RMK A01 T00620017  RH  074%=      5-min Rain = 0
KPMS 191155Z 13009KT 07/02 A2994 RMK A01 T00660016  RH  071%=      5-min Rain = 0
KPMS 191200Z 13009KT 07/01 A2994 RMK A01 T00680014  RH  069%=      5-min Rain = 0
KPMS 191205Z 12009KT 07/01 A2994 RMK A01 T00680013  RH  069%=      5-min Rain = 0
KPMS 191210Z 13009KT 07/01 A2994 RMK A01 T00690014  RH  069%=      5-min Rain = 0
KPMS 191215Z 14008KT 07/02 A2994 RMK A01 T00710016  RH  069%=      5-min Rain = 0
KPMS 191220Z 14008KT 07/02 A2994 RMK A01 T00650015  RH  072%=      5-min Rain = 0
KPMS 191225Z 14008KT 06/01 A2994 RMK A01 T00600014  RH  074%=      5-min Rain = 0
KPMS 191230Z 14007KT 06/01 A2994 RMK A01 T00560010  RH  074%=      5-min Rain = 0
KPMS 191235Z 14008KT 05/01 A2994 RMK A01 T00500008  RH  075%=      5-min Rain = 0
KPMS 191240Z 14008KT 05/01 A2994 RMK A01 T00490010  RH  077%=      5-min Rain = 0
KPMS 191245Z 14008KT 05/01 A2994 RMK A01 T00520012  RH  076%=      5-min Rain = 0
KPMS 191250Z 14008KT 05/01 A2994 RMK A01 T00530013  RH  076%=      5-min Rain = 0
KPMS 191255Z 14008KT 06/02 A2994 RMK A01 T00560016  RH  076%=      5-min Rain = 0
KPMS 191300Z 14008KT 06/02 A2994 RMK A01 T00580017  RH  076%=      5-min Rain = 0
KPMS 191305Z 15008KT 06/02 A2994 RMK A01 T00600016  RH  074%=      5-min Rain = 0
KPMS 191310Z 15008KT 06/01 A2994 RMK A01 T00550013  RH  075%=      5-min Rain = 0
KPMS 191315Z 15008KT 05/01 A2994 RMK A01 T00510010  RH  076%=      5-min Rain = 0
KPMS 191320Z 15008KT 05/01 A2994 RMK A01 T00470009  RH  078%=      5-min Rain = 0
KPMS 191325Z 15008KT 05/01 A2994 RMK A01 T00450010  RH  079%=      5-min Rain = 0
KPMS 191330Z 14008KT 05/02 A2994 RMK A01 T00510016  RH  080%=      5-min Rain = 0
KPMS 191335Z 14008KT 06/02 A2994 RMK A01 T00600019  RH  076%=      5-min Rain = 0
KPMS 191340Z 14008KT 06/02 A2994 RMK A01 T00610020  RH  076%=      5-min Rain = 0
KPMS 191345Z 15008KT 06/02 A2994 RMK A01 T00620021  RH  076%=      5-min Rain = 0
KPMS 191350Z 15009KT 07/02 A2994 RMK A01 T00650023  RH  076%=      5-min Rain = 0
KPMS 191355Z 15009KT 07/02 A2993 RMK A01 T00670024  RH  075%=      5-min Rain = 0
KPMS 191400Z 15009KT 07/03 A2993 RMK A01 T00690026  RH  075%=      5-min Rain = 0
KPMS 191405Z 16008KT 08/03 A2994 RMK A01 T00750027  RH  073%=      5-min Rain = 0
KPMS 191410Z 16009KT 08/03 A2994 RMK A01 T00830029  RH  070%=      5-min Rain = 0
KPMS 191415Z 16009KT 09/03 A2994 RMK A01 T00870030  RH  068%=      5-min Rain = 0
KPMS 191420Z 17010KT 09/03 A2994 RMK A01 T00910030  RH  067%=      5-min Rain = 0
KPMS 191425Z 16009KT 10/03 A2994 RMK A01 T00950031  RH  066%=      5-min Rain = 0
KPMS 191430Z 16009KT 10/03 A2994 RMK A01 T00990031  RH  064%=      5-min Rain = 0
KPMS 191435Z 16009KT 10/03 A2994 RMK A01 T01030032  RH  063%=      5-min Rain = 0
KPMS 191440Z 16009KT 11/03 A2994 RMK A01 T01070033  RH  061%=      5-min Rain = 0
KPMS 191445Z 16010KT 11/03 A2994 RMK A01 T01110033  RH  060%=      5-min Rain = 0
KPMS 191450Z 16011KT 12/03 A2994 RMK A01 T01160032  RH  058%=      5-min Rain = 0
KPMS 191455Z 16010KT 12/03 A2994 RMK A01 T01200032  RH  056%=      5-min Rain = 0
KPMS 191500Z 16011KT 12/03 A2994 RMK A01 T01230032  RH  055%=      5-min Rain = 0
KPMS 191505Z 16012KT 13/03 A2994 RMK A01 T01270031  RH  053%=      5-min Rain = 0
KPMS 191510Z 16012G17KT 13/03 A2994 RMK A01 T01290030  RH  052%=      5-min Rain = 0
KPMS 191515Z 16012G17KT 13/03 A2994 RMK A01 T01310031  RH  051%=      5-min Rain = 0
KPMS 191520Z 16012KT 13/03 A2994 RMK A01 T01340031  RH  050%=      5-min Rain = 0
KPMS 191525Z 16013KT 14/03 A2994 RMK A01 T01360030  RH  049%=      5-min Rain = 0
KPMS 191530Z 16012KT 14/03 A2994 RMK A01 T01400031  RH  048%=      5-min Rain = 0
KPMS 191535Z 16013KT 15/03 A2994 RMK A01 T01450031  RH  047%=      5-min Rain = 0
KPMS 191540Z 16014KT 15/03 A2993 RMK A01 T01480029  RH  046%=      5-min Rain = 0
KPMS 191545Z 15014KT 15/03 A2993 RMK A01 T01510030  RH  045%=      5-min Rain = 0
KPMS 191550Z 15014KT 15/03 A2993 RMK A01 T01520029  RH  044%=      5-min Rain = 0
KPMS 191555Z 16014KT 15/03 A2993 RMK A01 T01530029  RH  044%=      5-min Rain = 0
KPMS 191600Z 15015G20KT 16/03 A2993 RMK A01 T01570028  RH  043%=      5-min Rain = 0
KPMS 191605Z 16015G20KT 16/02 A2993 RMK A01 T01610024  RH  041%=      5-min Rain = 0
KPMS 191610Z 15015KT 16/03 A2993 RMK A01 T01640025  RH  040%=      5-min Rain = 0
KPMS 191615Z 15015G20KT 16/02 A2993 RMK A01 T01640024  RH  040%=      5-min Rain = 0
KPMS 191620Z 16014KT 17/03 A2993 RMK A01 T01670025  RH  039%=      5-min Rain = 0
KPMS 191625Z 16014G19KT 17/03 A2993 RMK A01 T01720025  RH  038%=      5-min Rain = 0
KPMS 191630Z 16015G21KT 17/02 A2993 RMK A01 T01740023  RH  037%=      5-min Rain = 0
KPMS 191635Z 16015G20KT 18/02 A2992 RMK A01 T01790020  RH  035%=      5-min Rain = 0
KPMS 191640Z 15017KT 18/02 A2992 RMK A01 T01800018  RH  034%=      5-min Rain = 0
KPMS 191645Z 16015G21KT 18/02 A2992 RMK A01 T01840017  RH  033%=      5-min Rain = 0
KPMS 191650Z 16018G23KT 19/01 A2992 RMK A01 T01850013  RH  032%=      5-min Rain = 0
KPMS 191655Z 16017G24KT 19/01 A2992 RMK A01 T01860011  RH  031%=      5-min Rain = 0
KPMS 191700Z 16017KT 19/01 A2991 RMK A01 T01880010  RH  031%=      5-min Rain = 0
KPMS 191705Z 16018G25KT 19/01 A2991 RMK A01 T01920008  RH  029%=      5-min Rain = 0
KPMS 191710Z 16019G24KT 19/00 A2991 RMK A01 T01910004  RH  029%=      5-min Rain = 0
KPMS 191715Z 17019G26KT 19/01 A2991 RMK A01 T01920005  RH  029%=      5-min Rain = 0
KPMS 191720Z 17019G25KT 19/00 A2991 RMK A01 T01940003  RH  028%=      5-min Rain = 0
KPMS 191725Z 17020G27KT 20/00 A2991 RMK A01 T01960001  RH  027%=      5-min Rain = 0
KPMS 191730Z 17018G24KT 20/00 A2991 RMK A01 T01970003  RH  027%=      5-min Rain = 0
KPMS 191735Z 16018G23KT 20/00 A299 RMK A01 T02030003  RH  027%=      5-min Rain = 0
KPMS 191740Z 17017G24KT 21/00 A299 RMK A01 T02050003  RH  026%=      5-min Rain = 0
KPMS 191745Z 17020G26KT 20/00 A2989 RMK A01 T02030002  RH  026%=      5-min Rain = 0
KPMS 191750Z 17021G28KT 20/00 A2989 RMK A01 T02000001  RH  027%=      5-min Rain = 0
KPMS 191755Z 18018G26KT 20/00 A2988 RMK A01 T02020004  RH  027%=      5-min Rain = 0
KPMS 191800Z 18018G25KT 20/01 A2988 RMK A01 T02040006  RH  027%=      5-min Rain = 0
KPMS 191805Z 17020G27KT 21/00 A2988 RMK A01 T02050003  RH  026%=      5-min Rain = 0
KPMS 191810Z 16018G24KT 21/01 A2987 RMK A01 T02090008  RH  027%=      5-min Rain = 0
KPMS 191815Z 17018G26KT 21/01 A2987 RMK A01 T02120009  RH  026%=      5-min Rain = 0
KPMS 191820Z 17020G28KT 21/01 A2987 RMK A01 T02130006  RH  026%=      5-min Rain = 0
KPMS 191825Z 16021G29KT 21/00 A2986 RMK A01 T02140004  RH  025%=      5-min Rain = 0
KPMS 191830Z 17022G29KT 22/M00 A2986 RMK A01 T02151001  RH  024%=      5-min Rain = 0
KPMS 191835Z 18021G28KT 21/M00 A2985 RMK A01 T02141002  RH  024%=      5-min Rain = 0
KPMS 191840Z 17021G28KT 22/M00 A2985 RMK A01 T02181001  RH  024%=      5-min Rain = 0
KPMS 191845Z 17022G29KT 22/M00 A2984 RMK A01 T02151002  RH  024%=      5-min Rain = 0
KPMS 191850Z 17020G28KT 22/00 A2984 RMK A01 T02160001  RH  024%=      5-min Rain = 0
KPMS 191855Z 17020G28KT 22/00 A2984 RMK A01 T02170000  RH  024%=      5-min Rain = 0
KPMS 191900Z 17024G29KT 22/M00 A2984 RMK A01 T02161001  RH  024%=      5-min Rain = 0
KPMS 191905Z 17022G30KT 22/M00 A2983 RMK A01 T02161002  RH  024%=      5-min Rain = 0
KPMS 191910Z 17020G27KT 22/M00 A2983 RMK A01 T02181001  RH  024%=      5-min Rain = 0
KPMS 191915Z 17018G25KT 22/00 A2983 RMK A01 T021900-0  RH  024%=      5-min Rain = 0
KPMS 191920Z 17020G25KT 22/M00 A2983 RMK A01 T02181001  RH  024%=      5-min Rain = 0
KPMS 191925Z 17019G26KT 22/00 A2982 RMK A01 T022100-0  RH  023%=      5-min Rain = 0
KPMS 191930Z 18017G24KT 22/00 A2982 RMK A01 T02220002  RH  023%=      5-min Rain = 0
KPMS 191935Z 18019G26KT 22/00 A2982 RMK A01 T02230000  RH  023%=      5-min Rain = 0
KPMS 191940Z 17020G28KT 23/00 A2982 RMK A01 T02260000  RH  023%=      5-min Rain = 0
KPMS 191945Z 18019G26KT 22/00 A2982 RMK A01 T02240001  RH  023%=      5-min Rain = 0
KPMS 191950Z 18019G24KT 22/00 A2981 RMK A01 T02200001  RH  023%=      5-min Rain = 0
KPMS 191955Z 17020G27KT 21/00 A2981 RMK A01 T02140002  RH  025%=      5-min Rain = 0
KPMS 192000Z 18017G24KT 22/00 A2981 RMK A01 T02160003  RH  024%=      5-min Rain = 0
KPMS 192005Z 18018G26KT 21/00 A2981 RMK A01 T02140002  RH  025%=      5-min Rain = 0
KPMS 192010Z 18019G25KT 22/00 A2981 RMK A01 T02170004  RH  025%=      5-min Rain = 0
KPMS 192015Z 18019G25KT 22/01 A2981 RMK A01 T02190006  RH  024%=      5-min Rain = 0
KPMS 192020Z 18018G25KT 22/01 A298 RMK A01 T02230008  RH  024%=      5-min Rain = 0
KPMS 192025Z 18017G23KT 22/01 A298 RMK A01 T02240008  RH  024%=      5-min Rain = 0
KPMS 192030Z 17020G27KT 23/01 A298 RMK A01 T02260007  RH  024%=      5-min Rain = 0
KPMS 192035Z 17018G23KT 23/01 A298 RMK A01 T02250009  RH  024%=      5-min Rain = 0
KPMS 192040Z 17018G26KT 23/01 A2979 RMK A01 T02260008  RH  024%=      5-min Rain = 0
KPMS 192045Z 18018G25KT 23/01 A2979 RMK A01 T02250007  RH  024%=      5-min Rain = 0
KPMS 192050Z 18016G21KT 23/01 A2979 RMK A01 T02260008  RH  024%=      5-min Rain = 0
KPMS 192055Z 17018G23KT 23/01 A2979 RMK A01 T02260007  RH  024%=      5-min Rain = 0
KPMS 192100Z 17017G23KT 23/01 A2979 RMK A01 T02260007  RH  024%=      5-min Rain = 0
KPMS 192105Z 17020G25KT 23/01 A2979 RMK A01 T02260006  RH  024%=      5-min Rain = 0
KPMS 192110Z 17017KT 23/01 A2979 RMK A01 T02260007  RH  024%=      5-min Rain = 0
KPMS 192115Z 17019G25KT 23/01 A2979 RMK A01 T02270007  RH  024%=      5-min Rain = 0
KPMS 192120Z 17019G24KT 23/01 A2979 RMK A01 T02270007  RH  024%=      5-min Rain = 0
KPMS 192125Z 17019G26KT 23/01 A2979 RMK A01 T02260008  RH  024%=      5-min Rain = 0
KPMS 192130Z 16017G27KT 23/01 A2979 RMK A01 T02260009  RH  024%=      5-min Rain = 0
KPMS 192135Z 17020KT 23/01 A2978 RMK A01 T02260007  RH  024%=      5-min Rain = 0
KPMS 192140Z 16017G24KT 23/01 A2978 RMK A01 T02250009  RH  024%=      5-min Rain = 0
KPMS 192145Z 16019G25KT 23/01 A2978 RMK A01 T02270008  RH  024%=      5-min Rain = 0
KPMS 192150Z 17018G24KT 23/01 A2978 RMK A01 T02270008  RH  024%=      5-min Rain = 0
KPMS 192155Z 17016G21KT 23/01 A2978 RMK A01 T02270007  RH  024%=      5-min Rain = 0
KPMS 192200Z 17017G23KT 23/01 A2978 RMK A01 T02280006  RH  023%=      5-min Rain = 0
KPMS 192205Z 16018G23KT 23/00 A2978 RMK A01 T02280004  RH  023%=      5-min Rain = 0
KPMS 192210Z 16016G23KT 23/00 A2978 RMK A01 T02270003  RH  023%=      5-min Rain = 0
KPMS 192215Z 16016G23KT 23/00 A2978 RMK A01 T02270003  RH  023%=      5-min Rain = 0
KPMS 192220Z 16015G20KT 23/00 A2977 RMK A01 T02270003  RH  023%=      5-min Rain = 0
KPMS 192225Z 16015KT 23/00 A2977 RMK A01 T02270001  RH  023%=      5-min Rain = 0
KPMS 192230Z 16014KT 23/M00 A2977 RMK A01 T02271001  RH  022%=      5-min Rain = 0
KPMS 192235Z 17014G20KT 23/M00 A2977 RMK A01 T02281003  RH  022%=      5-min Rain = 0
KPMS 192240Z 18014G19KT 23/M00 A2977 RMK A01 T02291004  RH  021%=      5-min Rain = 0
KPMS 192245Z 18014G20KT 23/M01 A2977 RMK A01 T02281005  RH  022%=      5-min Rain = 0
KPMS 192250Z 18013G19KT 23/M00 A2977 RMK A01 T02251004  RH  022%=      5-min Rain = 0
KPMS 192255Z 18012G17KT 22/M00 A2977 RMK A01 T02231004  RH  022%=      5-min Rain = 0
KPMS 192300Z 18012KT 22/M00 A2977 RMK A01 T02201004  RH  023%=      5-min Rain = 0
KPMS 192305Z 18012KT 22/M00 A2977 RMK A01 T02181004  RH  023%=      5-min Rain = 0
KPMS 192310Z 18010KT 21/M00 A2977 RMK A01 T02141003  RH  024%=      5-min Rain = 0
KPMS 192315Z 17011G16KT 21/M00 A2977 RMK A01 T02101003  RH  024%=      5-min Rain = 0
KPMS 192320Z 17011KT 21/M00 A2977 RMK A01 T02051001  RH  025%=      5-min Rain = 0
KPMS 192325Z 17012KT 20/00 A2977 RMK A01 T020200-0  RH  026%=      5-min Rain = 0
KPMS 192330Z 17011KT 20/00 A2977 RMK A01 T01990000  RH  027%=      5-min Rain = 0
KPMS 192335Z 18012G17KT 20/00 A2977 RMK A01 T01970000  RH  027%=      5-min Rain = 0
KPMS 192340Z 17012KT 20/00 A2977 RMK A01 T01960000  RH  027%=      5-min Rain = 0
KPMS 192345Z 17012G17KT 19/00 A2978 RMK A01 T01930000  RH  028%=      5-min Rain = 0
KPMS 192350Z 17012KT 19/00 A2978 RMK A01 T018900-0  RH  028%=      5-min Rain = 0
KPMS 192355Z 17013KT 19/M00 A2978 RMK A01 T01861001  RH  029%=      5-min Rain = 0
KPMS 200000Z 17012KT 19/M00 A2977 RMK A01 T01861001  RH  029%=      5-min Rain = 0
KPMS 200005Z 17013KT 18/00 A2978 RMK A01 T018300-0  RH  029%=      5-min Rain = 0
KPMS 200010Z 17012KT 18/00 A2978 RMK A01 T01780000  RH  030%=      5-min Rain = 0
KPMS 200015Z 17012KT 18/00 A2978 RMK A01 T017500-0  RH  031%=      5-min Rain = 0
KPMS 200020Z 16011KT 17/00 A2978 RMK A01 T017000-0  RH  032%=      5-min Rain = 0
KPMS 200025Z 16011KT 17/00 A2978 RMK A01 T01650001  RH  033%=      5-min Rain = 0
KPMS 200030Z 16011KT 16/00 A2979 RMK A01 T016100-0  RH  034%=      5-min Rain = 0
KPMS 200035Z 16012KT 16/00 A2979 RMK A01 T016000-0  RH  034%=      5-min Rain = 0
KPMS 200040Z 16013KT 16/00 A2979 RMK A01 T01640003  RH  034%=      5-min Rain = 0
KPMS 200045Z 16013G18KT 17/01 A2979 RMK A01 T01680008  RH  034%=      5-min Rain = 0
KPMS 200050Z 16013KT 17/01 A2979 RMK A01 T01670011  RH  035%=      5-min Rain = 0
KPMS 200055Z 15012KT 16/01 A2979 RMK A01 T01610013  RH  037%=      5-min Rain = 0
KPMS 200100Z 15012KT 15/01 A2979 RMK A01 T01540014  RH  039%=      5-min Rain = 0
KPMS 200105Z 16013KT 16/02 A2979 RMK A01 T01570015  RH  039%=      5-min Rain = 0
KPMS 200110Z 16013KT 16/02 A2979 RMK A01 T01600016  RH  038%=      5-min Rain = 0
KPMS 200115Z 16013KT 16/02 A2979 RMK A01 T01600017  RH  039%=      5-min Rain = 0
KPMS 200120Z 16013KT 16/02 A2979 RMK A01 T01570018  RH  039%=      5-min Rain = 0
KPMS 200125Z 16012KT 16/02 A2979 RMK A01 T01570018  RH  040%=      5-min Rain = 0
KPMS 200130Z 16012KT 15/02 A2979 RMK A01 T01540018  RH  040%=      5-min Rain = 0
KPMS 200135Z 16013KT 16/02 A2979 RMK A01 T01550019  RH  040%=      5-min Rain = 0
KPMS 200140Z 16013KT 16/02 A2979 RMK A01 T01560019  RH  040%=      5-min Rain = 0
KPMS 200145Z 16013KT 16/02 A2979 RMK A01 T01560019  RH  040%=      5-min Rain = 0
KPMS 200150Z 16013KT 16/02 A2979 RMK A01 T01560020  RH  041%=      5-min Rain = 0
KPMS 200155Z 15012KT 15/02 A2979 RMK A01 T01540021  RH  041%=      5-min Rain = 0
KPMS 200200Z 15012KT 15/02 A2979 RMK A01 T01490021  RH  043%=      5-min Rain = 0
KPMS 200205Z 16012KT 15/02 A2979 RMK A01 T01490021  RH  043%=      5-min Rain = 0
KPMS 200210Z 16012KT 15/02 A2979 RMK A01 T01500022  RH  043%=      5-min Rain = 0
KPMS 200215Z 16012KT 15/02 A2979 RMK A01 T01520024  RH  043%=      5-min Rain = 0
KPMS 200220Z 14012KT 15/03 A2979 RMK A01 T01460025  RH  045%=      5-min Rain = 0
KPMS 200225Z 15012KT 14/03 A2979 RMK A01 T01390025  RH  047%=      5-min Rain = 0
KPMS 200230Z 15012KT 14/03 A2979 RMK A01 T01370025  RH  047%=      5-min Rain = 0
KPMS 200235Z 15012KT 14/03 A2979 RMK A01 T01350026  RH  048%=      5-min Rain = 0
KPMS 200240Z 15012KT 13/03 A2979 RMK A01 T01340026  RH  049%=      5-min Rain = 0
KPMS 200245Z 15012KT 14/03 A2979 RMK A01 T01350028  RH  049%=      5-min Rain = 0
KPMS 200250Z 14012KT 13/03 A2979 RMK A01 T01330028  RH  050%=      5-min Rain = 0
KPMS 200255Z 14012KT 13/03 A2979 RMK A01 T01280028  RH  051%=      5-min Rain = 0
KPMS 200300Z 15011KT 12/03 A2979 RMK A01 T01240029  RH  053%=      5-min Rain = 0
KPMS 200305Z 14011KT 12/03 A2979 RMK A01 T01220030  RH  054%=      5-min Rain = 0
KPMS 200310Z 15011KT 12/03 A2979 RMK A01 T01200030  RH  055%=      5-min Rain = 0
KPMS 200315Z 14012KT 12/03 A2979 RMK A01 T01230032  RH  055%=      5-min Rain = 0
KPMS 200320Z 14011KT 13/03 A2979 RMK A01 T01260034  RH  054%=      5-min Rain = 0
KPMS 200325Z 14012KT 13/04 A2979 RMK A01 T01270035  RH  055%=      5-min Rain = 0
KPMS 200330Z 15013KT 13/04 A2979 RMK A01 T01270035  RH  054%=      5-min Rain = 0
KPMS 200335Z 15013KT 13/04 A2979 RMK A01 T01300036  RH  054%=      5-min Rain = 0
KPMS 200340Z 15013KT 13/04 A2979 RMK A01 T01310036  RH  054%=      5-min Rain = 0
KPMS 200345Z 15014KT 13/04 A2979 RMK A01 T01310036  RH  054%=      5-min Rain = 0
KPMS 200350Z 15013KT 13/04 A2979 RMK A01 T01300036  RH  054%=      5-min Rain = 0
KPMS 200355Z 15013KT 13/04 A2979 RMK A01 T01290036  RH  054%=      5-min Rain = 0
KPMS 200400Z 15013KT 13/04 A2979 RMK A01 T01280035  RH  054%=      5-min Rain = 0
KPMS 200405Z 15013KT 13/04 A2979 RMK A01 T01270035  RH  054%=      5-min Rain = 0
KPMS 200410Z 15013KT 13/04 A2979 RMK A01 T01270035  RH  055%=      5-min Rain = 0
KPMS 200415Z 15013KT 13/04 A2979 RMK A01 T01260035  RH  055%=      5-min Rain = 0
KPMS 200420Z 15013KT 13/04 A2979 RMK A01 T01260035  RH  055%=      5-min Rain = 0
KPMS 200425Z 15013KT 13/04 A2979 RMK A01 T01280035  RH  054%=      5-min Rain = 0
KPMS 200430Z 15013KT 13/04 A2979 RMK A01 T01290035  RH  054%=      5-min Rain = 0
KPMS 200435Z 15012G17KT 13/03 A2979 RMK A01 T01280034  RH  054%=      5-min Rain = 0
KPMS 200440Z 15012KT 13/04 A2979 RMK A01 T01280035  RH  054%=      5-min Rain = 0
KPMS 200445Z 15013KT 13/04 A2979 RMK A01 T01280035  RH  054%=      5-min Rain = 0
KPMS 200450Z 15012KT 13/04 A2978 RMK A01 T01280035  RH  054%=      5-min Rain = 0
KPMS 200455Z 15012KT 13/04 A2978 RMK A01 T01270036  RH  055%=      5-min Rain = 0
KPMS 200500Z 15011KT 13/04 A2978 RMK A01 T01250037  RH  056%=      5-min Rain = 0
KPMS 200505Z 15011KT 12/04 A2978 RMK A01 T01230038  RH  057%=      5-min Rain = 0
KPMS 200510Z 15011KT 12/04 A2978 RMK A01 T01210039  RH  058%=      5-min Rain = 0
KPMS 200515Z 14011KT 12/04 A2978 RMK A01 T01200039  RH  059%=      5-min Rain = 0
KPMS 200520Z 14011KT 12/04 A2978 RMK A01 T01210040  RH  059%=      5-min Rain = 0
KPMS 200525Z 14012KT 12/04 A2978 RMK A01 T01210040  RH  059%=      5-min Rain = 0
KPMS 200530Z 15011KT 12/04 A2978 RMK A01 T01200040  RH  059%=      5-min Rain = 0
KPMS 200535Z 15011KT 12/04 A2978 RMK A01 T01200041  RH  060%=      5-min Rain = 0
KPMS 200540Z 15012KT 12/04 A2978 RMK A01 T01190040  RH  060%=      5-min Rain = 0
KPMS 200545Z 15012KT 12/04 A2977 RMK A01 T01190040  RH  060%=      5-min Rain = 0
KPMS 200550Z 15012KT 12/04 A2977 RMK A01 T01180041  RH  060%=      5-min Rain = 0
KPMS 200555Z 16012KT 12/04 A2977 RMK A01 T01210041  RH  059%=      5-min Rain = 0

Page generated in 0.0107 seconds.